createdAt,value
2018-07-17T00:02:15.336Z,23.20
2018-07-17T00:04:42.843Z,23.10
2018-07-17T00:07:10.303Z,23.00
2018-07-17T00:09:37.783Z,23.10
2018-07-17T00:12:05.226Z,23.20
2018-07-17T00:14:32.696Z,23.10
2018-07-17T00:17:00.148Z,22.80
2018-07-17T00:19:27.730Z,22.80
2018-07-17T00:21:55.200Z,22.80
2018-07-17T00:24:22.651Z,23.10
2018-07-17T00:26:50.119Z,23.10
2018-07-17T00:29:17.585Z,22.70
2018-07-17T00:31:45.049Z,22.40
2018-07-17T00:34:12.968Z,22.30
2018-07-17T00:36:40.445Z,22.20
2018-07-17T00:39:07.900Z,22.60
2018-07-17T00:41:35.353Z,22.80
2018-07-17T00:44:02.833Z,22.70
2018-07-17T00:46:30.275Z,22.60
2018-07-17T00:48:57.749Z,22.60
2018-07-17T00:51:25.245Z,22.80
2018-07-17T00:53:52.723Z,22.70
2018-07-17T00:56:20.996Z,22.70
2018-07-17T00:58:48.435Z,22.70
2018-07-17T01:01:21.576Z,22.80
2018-07-17T01:03:55.544Z,22.40
2018-07-17T01:06:28.811Z,22.40
2018-07-17T01:09:02.118Z,22.30
2018-07-17T01:11:35.312Z,22.00
2018-07-17T01:14:02.771Z,21.80
2018-07-17T01:16:30.252Z,21.90
2018-07-17T01:18:57.709Z,22.20
2018-07-17T01:21:25.762Z,22.10
2018-07-17T01:23:53.214Z,22.20
2018-07-17T01:26:20.683Z,22.30
2018-07-17T01:28:48.142Z,22.50
2018-07-17T01:31:15.598Z,22.70
2018-07-17T01:33:43.111Z,22.60
2018-07-17T01:36:12.104Z,22.50
2018-07-17T01:38:39.577Z,22.50
2018-07-17T01:41:08.556Z,22.40
2018-07-17T01:43:36.025Z,22.40
2018-07-17T01:46:04.273Z,22.30
2018-07-17T01:48:31.737Z,22.30
2018-07-17T01:50:59.199Z,22.30
2018-07-17T01:53:26.651Z,22.30
2018-07-17T01:55:54.130Z,22.10
2018-07-17T01:58:21.588Z,22.30
2018-07-17T02:00:49.047Z,22.10
2018-07-17T02:03:16.516Z,22.10
2018-07-17T02:05:43.964Z,22.10
2018-07-17T02:08:11.424Z,21.90
2018-07-17T02:10:38.879Z,21.80
2018-07-17T02:13:06.343Z,21.80
2018-07-17T02:15:33.803Z,22.00
2018-07-17T02:18:01.269Z,22.00
2018-07-17T02:20:28.724Z,21.90
2018-07-17T02:22:56.189Z,21.80
2018-07-17T02:25:23.648Z,21.60
2018-07-17T02:27:51.096Z,21.80
2018-07-17T02:30:19.338Z,21.80
2018-07-17T02:32:46.809Z,21.80
2018-07-17T02:35:15.040Z,21.90
2018-07-17T02:37:42.499Z,21.90
2018-07-17T02:40:09.955Z,21.90
2018-07-17T02:42:37.460Z,21.90
2018-07-17T02:45:04.928Z,21.70
2018-07-17T02:47:32.386Z,21.70
2018-07-17T02:49:59.964Z,21.60
2018-07-17T02:52:27.511Z,21.50
2018-07-17T02:54:54.983Z,21.50
2018-07-17T02:57:22.442Z,21.70
2018-07-17T02:59:49.908Z,21.90
2018-07-17T03:02:17.467Z,21.90
2018-07-17T03:04:44.925Z,21.90
2018-07-17T03:07:12.465Z,21.80
2018-07-17T03:09:39.841Z,21.80
2018-07-17T03:12:07.299Z,21.70
2018-07-17T03:14:34.886Z,21.80
2018-07-17T03:17:03.691Z,21.60
2018-07-17T03:19:31.146Z,21.40
2018-07-17T03:21:59.377Z,21.30
2018-07-17T03:24:26.887Z,21.30
2018-07-17T03:26:54.307Z,21.30
2018-07-17T03:29:21.811Z,21.10
2018-07-17T03:31:49.374Z,21.30
2018-07-17T03:34:16.829Z,21.60
2018-07-17T03:36:44.296Z,21.40
2018-07-17T03:39:11.744Z,21.30
2018-07-17T03:41:39.203Z,21.30
2018-07-17T03:44:06.664Z,21.10
2018-07-17T03:46:34.131Z,21.20
2018-07-17T03:49:01.594Z,21.50
2018-07-17T03:51:29.069Z,21.50
2018-07-17T03:53:57.357Z,21.70
2018-07-17T03:56:24.824Z,21.70
2018-07-17T03:58:52.373Z,21.70
2018-07-17T04:01:19.864Z,21.80
2018-07-17T04:03:47.319Z,21.80
2018-07-17T04:06:14.868Z,21.90
2018-07-17T04:08:42.335Z,22.00
2018-07-17T04:11:09.787Z,22.00
2018-07-17T04:13:37.254Z,21.70
2018-07-17T04:16:04.711Z,21.60
2018-07-17T04:18:32.187Z,21.90
2018-07-17T04:20:59.635Z,21.80
2018-07-17T04:23:27.196Z,21.60
2018-07-17T04:25:54.668Z,21.90
2018-07-17T04:28:22.230Z,22.10
2018-07-17T04:30:49.684Z,21.90
2018-07-17T04:33:17.161Z,22.00
2018-07-17T04:35:45.386Z,21.90
2018-07-17T04:38:13.744Z,22.00
2018-07-17T04:40:41.277Z,22.00
2018-07-17T04:43:08.849Z,22.10
2018-07-17T04:45:36.312Z,22.00
2018-07-17T04:48:04.644Z,21.80
2018-07-17T04:50:32.144Z,21.80
2018-07-17T04:52:59.617Z,21.80
2018-07-17T04:55:27.172Z,21.90
2018-07-17T04:57:54.645Z,21.70
2018-07-17T05:00:22.862Z,21.90
2018-07-17T05:02:51.107Z,21.80
2018-07-17T05:05:19.372Z,21.60
2018-07-17T05:07:46.928Z,21.60
2018-07-17T05:10:14.407Z,21.70
2018-07-17T05:12:43.036Z,21.70
2018-07-17T05:15:11.275Z,21.80
2018-07-17T05:17:40.263Z,21.90
2018-07-17T05:20:07.716Z,21.90
2018-07-17T05:22:35.177Z,22.00
2018-07-17T05:25:02.647Z,22.40
2018-07-17T05:27:30.109Z,22.20
2018-07-17T05:29:57.668Z,22.20
2018-07-17T05:32:25.143Z,22.10
2018-07-17T05:34:52.605Z,22.10
2018-07-17T05:37:20.065Z,22.10
2018-07-17T05:39:47.520Z,22.20
2018-07-17T05:42:14.982Z,22.10
2018-07-17T05:44:42.442Z,22.00
2018-07-17T05:47:09.953Z,22.30
2018-07-17T05:49:38.222Z,22.50
2018-07-17T05:52:05.819Z,22.50
2018-07-17T05:54:33.174Z,22.50
2018-07-17T05:57:00.720Z,22.50
2018-07-17T05:59:28.972Z,22.40
2018-07-17T06:01:56.461Z,22.40
2018-07-17T06:04:24.700Z,22.60
2018-07-17T06:06:52.303Z,22.60
2018-07-17T06:09:21.340Z,22.70
2018-07-17T06:11:48.906Z,22.70
2018-07-17T06:14:16.396Z,22.50
2018-07-17T06:16:43.852Z,22.70
2018-07-17T06:19:11.307Z,22.80
2018-07-17T06:21:38.789Z,22.70
2018-07-17T06:24:06.231Z,22.80
2018-07-17T06:26:33.687Z,22.80
2018-07-17T06:29:01.173Z,22.90
2018-07-17T06:31:29.203Z,23.00
2018-07-17T06:33:56.714Z,23.00
2018-07-17T06:36:24.275Z,23.20
2018-07-17T06:38:51.755Z,23.00
2018-07-17T06:41:19.223Z,23.00
2018-07-17T06:43:47.443Z,23.10
2018-07-17T06:46:14.919Z,23.10
2018-07-17T06:48:42.362Z,23.20
2018-07-17T06:51:09.824Z,23.30
2018-07-17T06:53:37.278Z,23.20
2018-07-17T06:56:04.744Z,23.30
2018-07-17T06:58:32.196Z,23.40
2018-07-17T07:00:59.662Z,23.40
2018-07-17T07:03:27.173Z,23.30
2018-07-17T07:05:54.652Z,23.40
2018-07-17T07:08:24.099Z,23.50
2018-07-17T07:10:51.559Z,23.50
2018-07-17T07:15:41.466Z,23.60
2018-07-17T07:18:08.932Z,23.50
2018-07-17T07:20:36.439Z,23.50
2018-07-17T07:23:03.900Z,23.50
2018-07-17T07:25:31.372Z,23.60
2018-07-17T07:27:58.926Z,23.70
2018-07-17T07:30:26.391Z,23.70
2018-07-17T07:32:53.958Z,23.70
2018-07-17T07:35:21.424Z,23.70
2018-07-17T07:37:48.891Z,23.70
2018-07-17T07:40:16.352Z,23.80
2018-07-17T07:42:43.863Z,23.70
2018-07-17T07:45:12.764Z,23.60
2018-07-17T07:47:40.225Z,23.70
2018-07-17T07:50:07.728Z,23.80
2018-07-17T07:52:35.188Z,23.70
2018-07-17T07:55:04.176Z,23.80
2018-07-17T07:57:31.750Z,23.70
2018-07-17T07:59:59.306Z,23.70
2018-07-17T08:02:26.770Z,23.70
2018-07-17T08:04:54.336Z,23.70
2018-07-17T08:07:21.895Z,23.90
2018-07-17T08:09:49.458Z,23.80
2018-07-17T08:12:17.063Z,24.00
2018-07-17T08:14:45.286Z,24.20
2018-07-17T08:17:12.775Z,24.10
2018-07-17T08:19:40.253Z,24.20
2018-07-17T08:22:07.705Z,24.20
2018-07-17T08:24:35.147Z,24.20
2018-07-17T08:27:02.622Z,24.10
2018-07-17T08:29:30.189Z,23.90
2018-07-17T08:31:57.659Z,23.90
2018-07-17T08:34:25.895Z,24.10
2018-07-17T08:36:53.416Z,24.00
2018-07-17T08:39:21.672Z,24.30
2018-07-17T08:41:49.170Z,24.30
2018-07-17T08:44:17.380Z,24.40
2018-07-17T08:46:44.874Z,24.30
2018-07-17T08:49:12.530Z,24.50
2018-07-17T08:51:39.997Z,24.50
2018-07-17T08:54:07.517Z,24.50
2018-07-17T08:56:34.912Z,24.40
2018-07-17T08:59:02.401Z,24.30
2018-07-17T09:01:30.651Z,24.40
2018-07-17T09:03:59.281Z,24.40
2018-07-17T09:06:27.547Z,24.70
2018-07-17T09:08:55.785Z,24.70
2018-07-17T09:11:23.238Z,24.70
2018-07-17T09:13:50.742Z,24.70
2018-07-17T09:16:18.334Z,25.00
2018-07-17T09:18:45.886Z,24.80
2018-07-17T09:21:15.003Z,25.00
2018-07-17T09:23:42.447Z,25.00
2018-07-17T09:26:10.694Z,25.40
2018-07-17T09:28:38.175Z,25.40
2018-07-17T09:31:05.711Z,25.30
2018-07-17T09:33:33.180Z,25.10
2018-07-17T09:36:00.660Z,25.20
2018-07-17T09:38:28.121Z,25.30
2018-07-17T09:40:55.699Z,25.30
2018-07-17T09:43:23.170Z,25.60
2018-07-17T09:45:52.157Z,25.50
2018-07-17T09:48:19.620Z,25.50
2018-07-17T09:50:47.100Z,25.50
2018-07-17T09:53:14.564Z,25.30
2018-07-17T09:55:42.063Z,25.30
2018-07-17T09:58:09.589Z,25.40
2018-07-17T10:00:37.074Z,25.70
2018-07-17T10:03:04.523Z,25.70
2018-07-17T10:05:32.788Z,25.50
2018-07-17T10:08:00.364Z,25.50
2018-07-17T10:10:28.587Z,25.50
2018-07-17T10:12:56.074Z,25.50
2018-07-17T10:15:23.533Z,25.40
2018-07-17T10:17:51.105Z,25.50
2018-07-17T10:20:18.588Z,25.50
2018-07-17T10:22:46.496Z,25.30
2018-07-17T10:25:13.986Z,25.40
2018-07-17T10:27:41.573Z,25.30
2018-07-17T10:30:09.057Z,25.60
2018-07-17T10:32:36.574Z,25.60
2018-07-17T10:35:04.059Z,25.60
2018-07-17T10:37:31.519Z,25.60
2018-07-17T10:39:59.088Z,25.30
2018-07-17T10:42:28.080Z,25.50
2018-07-17T10:44:55.644Z,25.60
2018-07-17T10:47:23.141Z,25.60
2018-07-17T10:49:50.675Z,25.70
2018-07-17T10:52:18.236Z,25.80
2018-07-17T10:54:45.805Z,25.60
2018-07-17T10:57:13.263Z,25.50
2018-07-17T10:59:41.191Z,25.50
2018-07-17T11:02:08.707Z,25.40
2018-07-17T11:04:36.166Z,25.20
2018-07-17T11:07:04.415Z,25.20
2018-07-17T11:09:31.895Z,25.10
2018-07-17T11:11:59.361Z,25.20
2018-07-17T11:14:26.812Z,25.10
2018-07-17T11:16:54.386Z,25.10
2018-07-17T11:19:21.952Z,25.30
2018-07-17T11:21:49.411Z,25.20
2018-07-17T11:24:16.975Z,25.30
2018-07-17T11:26:44.447Z,25.30
2018-07-17T11:29:11.889Z,25.40
2018-07-17T11:31:39.356Z,25.30
2018-07-17T11:34:06.810Z,25.30
2018-07-17T11:36:34.266Z,25.40
2018-07-17T11:39:01.754Z,25.60
2018-07-17T11:41:29.317Z,25.70
2018-07-17T11:43:56.775Z,25.60
2018-07-17T11:46:24.248Z,25.70
2018-07-17T11:48:51.694Z,25.30
2018-07-17T11:51:19.268Z,25.50
2018-07-17T11:53:46.828Z,25.70
2018-07-17T11:56:14.288Z,25.90
2018-07-17T11:58:41.858Z,25.80
2018-07-17T12:01:09.417Z,25.80
2018-07-17T12:03:36.879Z,25.60
2018-07-17T12:06:04.349Z,25.70
2018-07-17T12:08:31.916Z,25.60
2018-07-17T12:10:59.374Z,25.90
2018-07-17T12:13:26.944Z,25.90
2018-07-17T12:15:55.945Z,25.50
2018-07-17T12:18:24.689Z,25.70
2018-07-17T12:20:52.188Z,25.70
2018-07-17T12:23:19.646Z,25.50
2018-07-17T12:25:47.103Z,25.70
2018-07-17T12:28:14.571Z,25.50
2018-07-17T12:30:42.039Z,26.00
2018-07-17T12:33:09.602Z,26.00
2018-07-17T12:35:37.168Z,25.80
2018-07-17T12:38:04.614Z,25.90
2018-07-17T12:40:32.088Z,25.80
2018-07-17T12:42:59.653Z,26.80
2018-07-17T12:45:27.211Z,27.50
2018-07-17T12:47:54.664Z,27.70
2018-07-17T12:50:22.123Z,27.30
2018-07-17T12:52:49.577Z,27.40
2018-07-17T12:55:17.439Z,27.40
2018-07-17T12:57:44.883Z,27.30
2018-07-17T13:00:12.359Z,27.20
2018-07-17T13:02:39.875Z,27.60
2018-07-17T13:05:07.420Z,27.80
2018-07-17T13:07:34.992Z,27.70
2018-07-17T13:10:03.990Z,27.60
2018-07-17T13:12:31.557Z,27.60
2018-07-17T13:14:59.024Z,27.80
2018-07-17T13:17:26.486Z,27.80
2018-07-17T13:19:54.715Z,27.70
2018-07-17T13:22:22.166Z,27.60
2018-07-17T13:24:49.619Z,27.80
2018-07-17T13:27:17.848Z,28.10
2018-07-17T13:29:45.307Z,28.10
2018-07-17T13:32:12.771Z,27.80
2018-07-17T13:34:40.347Z,27.50
2018-07-17T13:37:07.812Z,27.50
2018-07-17T13:39:35.274Z,27.70
2018-07-17T13:42:02.723Z,27.80
2018-07-17T13:44:30.286Z,27.50
2018-07-17T13:46:57.744Z,27.80
2018-07-17T13:49:25.200Z,27.40
2018-07-17T13:51:52.651Z,27.50
2018-07-17T13:54:20.111Z,27.60
2018-07-17T13:56:47.571Z,27.70
2018-07-17T13:59:15.068Z,28.00
2018-07-17T14:01:42.524Z,27.50
2018-07-17T14:04:09.971Z,27.80
2018-07-17T14:06:37.440Z,27.90
2018-07-17T14:09:04.908Z,27.80
2018-07-17T14:11:32.375Z,27.90
2018-07-17T14:14:00.416Z,27.70
2018-07-17T14:16:27.884Z,27.60
2018-07-17T14:18:55.347Z,27.80
2018-07-17T14:21:22.820Z,27.80
2018-07-17T14:23:50.316Z,28.10
2018-07-17T14:26:17.778Z,27.80
2018-07-17T14:28:45.326Z,28.00
2018-07-17T14:31:12.794Z,28.10
2018-07-17T14:33:40.352Z,28.10
2018-07-17T14:36:07.940Z,28.10
2018-07-17T14:38:35.400Z,27.70
2018-07-17T14:41:02.848Z,28.00
2018-07-17T14:43:30.308Z,27.90
2018-07-17T14:45:57.868Z,27.70
2018-07-17T14:48:25.332Z,28.20
2018-07-17T14:50:53.979Z,28.00
2018-07-17T14:53:22.179Z,27.90
2018-07-17T14:55:49.670Z,27.90
2018-07-17T14:58:17.142Z,27.70
2018-07-17T15:00:44.697Z,27.70
2018-07-17T15:03:12.152Z,28.00
2018-07-17T15:05:39.724Z,28.20
2018-07-17T15:08:07.181Z,28.30
2018-07-17T15:10:34.653Z,28.50
2018-07-17T15:13:02.923Z,28.00
2018-07-17T15:15:30.487Z,28.00
2018-07-17T15:17:57.861Z,27.70
2018-07-17T15:20:25.314Z,27.80
2018-07-17T15:22:52.867Z,27.80
2018-07-17T15:25:20.349Z,27.90
2018-07-17T15:27:48.650Z,28.00
2018-07-17T15:30:16.043Z,27.90
2018-07-17T15:32:43.535Z,27.80
2018-07-17T15:35:11.068Z,27.80
2018-07-17T15:37:38.475Z,27.90
2018-07-17T15:40:05.924Z,27.60
2018-07-17T15:42:33.517Z,27.40
2018-07-17T15:45:01.057Z,27.70
2018-07-17T15:47:28.610Z,28.00
2018-07-17T15:49:57.024Z,28.30
2018-07-17T15:52:24.476Z,28.30
2018-07-17T15:54:53.465Z,28.00
2018-07-17T15:57:20.919Z,28.00
2018-07-17T15:59:48.545Z,28.00
2018-07-17T16:02:17.481Z,27.60
2018-07-17T16:04:44.932Z,27.60
2018-07-17T16:07:12.414Z,27.50
2018-07-17T16:09:40.549Z,27.70
2018-07-17T16:12:08.056Z,27.70
2018-07-17T16:14:35.523Z,28.10
2018-07-17T16:17:04.488Z,27.70
2018-07-17T16:19:31.951Z,27.70
2018-07-17T16:21:59.435Z,27.90
2018-07-17T16:24:27.000Z,28.00
2018-07-17T16:26:54.464Z,27.60
2018-07-17T16:29:22.027Z,27.80
2018-07-17T16:31:49.503Z,27.70
2018-07-17T16:34:18.489Z,28.00
2018-07-17T16:36:46.094Z,28.00
2018-07-17T16:39:13.618Z,28.10
2018-07-17T16:41:41.186Z,28.10
2018-07-17T16:44:10.143Z,28.00
2018-07-17T16:46:37.743Z,28.00
2018-07-17T16:49:05.201Z,28.00
2018-07-17T16:51:32.697Z,28.00
2018-07-17T16:54:00.981Z,27.60
2018-07-17T16:56:29.946Z,27.60
2018-07-17T16:58:57.410Z,27.60
2018-07-17T17:01:24.911Z,27.60
2018-07-17T17:03:52.432Z,27.40
2018-07-17T17:06:19.998Z,27.70
2018-07-17T17:08:47.462Z,27.60
2018-07-17T17:11:14.913Z,27.50
2018-07-17T17:13:42.491Z,27.40
2018-07-17T17:16:10.732Z,27.40
2018-07-17T17:18:38.191Z,27.40
2018-07-17T17:21:06.155Z,26.90
2018-07-17T17:23:35.175Z,27.20
2018-07-17T17:26:02.701Z,27.10
2018-07-17T17:28:30.914Z,27.00
2018-07-17T17:30:58.407Z,27.00
2018-07-17T17:33:25.880Z,27.10
2018-07-17T17:35:54.852Z,26.80
2018-07-17T17:38:22.312Z,26.90
2018-07-17T17:40:49.776Z,26.70
2018-07-17T17:43:17.243Z,26.70
2018-07-17T17:45:44.712Z,26.80
2018-07-17T17:48:12.302Z,26.80
2018-07-17T17:50:39.853Z,26.80
2018-07-17T17:53:07.317Z,26.80
2018-07-17T17:55:35.552Z,26.90
2018-07-17T17:58:03.037Z,26.90
2018-07-17T18:00:30.489Z,26.80
2018-07-17T18:02:57.975Z,26.60
2018-07-17T18:05:26.205Z,26.60
2018-07-17T18:07:53.664Z,26.60
2018-07-17T18:10:21.137Z,26.70
2018-07-17T18:12:48.591Z,26.70
2018-07-17T18:15:16.104Z,26.80
2018-07-17T18:17:43.568Z,26.70
2018-07-17T18:20:12.544Z,26.40
2018-07-17T18:22:40.024Z,26.30
2018-07-17T18:25:07.492Z,26.00
2018-07-17T18:27:34.970Z,26.20
2018-07-17T18:30:02.433Z,26.40
2018-07-17T18:32:29.981Z,26.30
2018-07-17T18:34:58.944Z,26.20
2018-07-17T18:37:26.533Z,26.20
2018-07-17T18:39:54.097Z,26.00
2018-07-17T18:42:22.521Z,25.90
2018-07-17T18:44:50.777Z,26.10
2018-07-17T18:47:18.999Z,26.40
2018-07-17T18:49:46.474Z,26.30
2018-07-17T18:52:13.965Z,25.80
2018-07-17T18:54:41.406Z,26.00
2018-07-17T18:57:09.002Z,26.00
2018-07-17T18:59:36.360Z,26.10
2018-07-17T19:02:03.921Z,26.00
2018-07-17T19:04:31.468Z,26.00
2018-07-17T19:06:58.922Z,25.80
2018-07-17T19:09:26.399Z,25.90
2018-07-17T19:11:53.873Z,25.90
2018-07-17T19:14:21.529Z,25.90
2018-07-17T19:16:49.017Z,25.70
2018-07-17T19:19:16.731Z,25.80
2018-07-17T19:21:44.225Z,26.00
2018-07-17T19:24:11.684Z,25.90
2018-07-17T19:26:39.153Z,25.90
2018-07-17T19:29:06.634Z,25.90
2018-07-17T19:31:35.610Z,25.70
2018-07-17T19:34:03.081Z,25.70
2018-07-17T19:36:30.634Z,25.70
2018-07-17T19:38:58.197Z,25.70
2018-07-17T19:41:25.674Z,25.80
2018-07-17T19:43:53.121Z,25.80
2018-07-17T19:46:20.685Z,25.80
2018-07-17T19:48:48.161Z,25.50
2018-07-17T19:51:16.431Z,25.50
2018-07-17T19:53:43.900Z,25.40
2018-07-17T19:56:11.359Z,25.70
2018-07-17T19:58:38.908Z,25.80
2018-07-17T20:01:06.484Z,25.70
2018-07-17T20:03:33.940Z,25.70
2018-07-17T20:06:01.437Z,25.60
2018-07-17T20:08:28.960Z,25.60
2018-07-17T20:10:56.378Z,25.50
2018-07-17T20:13:23.899Z,25.70
2018-07-17T20:15:52.172Z,25.60
2018-07-17T20:18:19.636Z,25.60
2018-07-17T20:20:47.090Z,25.70
2018-07-17T20:23:14.553Z,25.40
2018-07-17T20:25:42.773Z,25.30
2018-07-17T20:28:11.080Z,25.20
2018-07-17T20:30:38.565Z,25.20
2018-07-17T20:33:06.053Z,25.20
2018-07-17T20:35:33.500Z,25.20
2018-07-17T20:38:02.799Z,25.20
2018-07-17T20:40:30.247Z,25.10
2018-07-17T20:42:57.782Z,25.20
2018-07-17T20:45:26.117Z,22.50
2018-07-17T20:47:53.681Z,22.40
2018-07-17T20:50:21.256Z,21.70
2018-07-17T20:52:49.484Z,21.00
2018-07-17T20:55:16.957Z,21.00
2018-07-17T20:57:44.420Z,20.90
2018-07-17T21:00:11.890Z,21.00
2018-07-17T21:02:39.391Z,20.80
2018-07-17T21:05:08.383Z,20.70
2018-07-17T21:07:35.838Z,20.70
2018-07-17T21:10:03.324Z,20.70
2018-07-17T21:12:31.551Z,20.60
2018-07-17T21:14:59.021Z,20.60
2018-07-17T21:17:27.301Z,20.40
2018-07-17T21:19:54.759Z,20.40
2018-07-17T21:22:22.244Z,20.40
2018-07-17T21:24:49.709Z,20.70
2018-07-17T21:27:17.172Z,20.80
2018-07-17T21:29:44.633Z,20.60
2018-07-17T21:32:12.096Z,20.50
2018-07-17T21:34:39.653Z,20.20
2018-07-17T21:37:07.226Z,20.40
2018-07-17T21:39:34.793Z,20.40
2018-07-17T21:42:02.247Z,20.20
2018-07-17T21:44:29.714Z,20.40
2018-07-17T21:46:57.275Z,20.40
2018-07-17T21:49:24.748Z,20.20
2018-07-17T21:51:53.719Z,20.10
2018-07-17T21:54:21.177Z,20.10
2018-07-17T21:56:48.639Z,20.20
2018-07-17T21:59:16.099Z,20.00
2018-07-17T22:01:43.597Z,19.80
2018-07-17T22:04:11.188Z,19.80
2018-07-17T22:06:39.567Z,20.20
2018-07-17T22:09:07.833Z,20.00
2018-07-17T22:11:35.412Z,19.90
2018-07-17T22:14:03.693Z,19.80
2018-07-17T22:16:31.961Z,19.70
2018-07-17T22:18:59.461Z,19.70
2018-07-17T22:21:26.972Z,19.60
2018-07-17T22:23:55.282Z,19.40
2018-07-17T22:26:23.549Z,19.40
2018-07-17T22:28:51.840Z,19.60
2018-07-17T22:31:20.095Z,19.60
2018-07-17T22:33:47.586Z,19.60
2018-07-17T22:36:15.856Z,19.50
2018-07-17T22:38:43.429Z,19.50
2018-07-17T22:41:11.708Z,19.60
2018-07-17T22:43:41.710Z,19.60
2018-07-17T22:46:09.973Z,19.50
2018-07-17T22:48:37.577Z,19.50
2018-07-17T22:51:05.849Z,19.40
2018-07-17T22:53:33.333Z,19.40
2018-07-17T22:56:00.833Z,19.40
2018-07-17T22:58:28.450Z,19.40
2018-07-17T23:00:56.719Z,19.40
2018-07-17T23:03:24.224Z,19.30
2018-07-17T23:05:51.734Z,19.40
2018-07-17T23:08:19.992Z,19.10
2018-07-17T23:10:47.501Z,19.10
2018-07-17T23:13:15.781Z,19.20
2018-07-17T23:15:44.040Z,19.50
2018-07-17T23:18:12.310Z,19.70
2018-07-17T23:20:39.794Z,19.70
2018-07-17T23:23:07.371Z,19.80
2018-07-17T23:25:35.646Z,19.30
2018-07-17T23:28:03.934Z,19.20
2018-07-17T23:30:32.210Z,19.10
2018-07-17T23:33:00.480Z,19.30
2018-07-17T23:35:28.044Z,19.30
2018-07-17T23:37:55.612Z,19.20
2018-07-17T23:40:23.115Z,19.10
2018-07-17T23:42:50.607Z,19.40
2018-07-17T23:45:18.210Z,19.40
2018-07-17T23:47:46.469Z,19.00
2018-07-17T23:50:13.980Z,19.00
2018-07-17T23:52:41.483Z,19.20
2018-07-17T23:55:08.989Z,19.30
2018-07-17T23:57:37.265Z,19.30
